createdAt,value
2023-05-22T00:00:13.248Z,12.65
2023-05-22T00:05:11.805Z,12.00
2023-05-22T00:07:40.058Z,12.00
2023-05-22T00:10:07.497Z,11.27
2023-05-22T00:12:34.736Z,11.65
2023-05-22T00:15:04.371Z,12.65
2023-05-22T00:20:08.064Z,13.65
2023-05-22T00:22:35.484Z,12.48
2023-05-22T00:25:03.757Z,10.98
2023-05-22T00:27:33.203Z,12.88
2023-05-22T00:30:03.611Z,12.07
2023-05-22T00:32:30.825Z,12.45
2023-05-22T00:34:58.047Z,11.88
2023-05-22T00:37:25.529Z,11.73
2023-05-22T00:39:52.658Z,11.73
2023-05-22T00:42:19.856Z,12.07
2023-05-22T00:44:49.822Z,12.25
2023-05-22T00:47:16.974Z,12.13
2023-05-22T00:49:46.767Z,12.23
2023-05-22T00:52:15.060Z,12.32
2023-05-22T00:54:42.715Z,12.85
2023-05-22T00:57:09.908Z,11.90
2023-05-22T00:59:37.112Z,12.02
2023-05-22T01:02:04.306Z,12.68
2023-05-22T01:04:32.660Z,13.30
2023-05-22T01:07:02.996Z,12.25
2023-05-22T01:09:30.948Z,12.23
2023-05-22T01:12:21.518Z,11.18
2023-05-22T01:15:17.457Z,11.95
2023-05-22T01:17:52.991Z,12.73
2023-05-22T01:20:35.586Z,12.77
2023-05-22T01:23:10.875Z,11.43
2023-05-22T01:25:41.092Z,12.10
2023-05-22T01:28:11.243Z,11.13
2023-05-22T01:30:47.017Z,12.07
2023-05-22T01:33:18.923Z,12.45
2023-05-22T01:35:47.303Z,13.15
2023-05-22T01:38:15.366Z,13.20
2023-05-22T01:40:45.191Z,11.65
2023-05-22T01:43:13.342Z,12.30
2023-05-22T01:45:40.525Z,11.30
2023-05-22T01:48:07.890Z,11.98
2023-05-22T01:50:35.154Z,12.68
2023-05-22T01:53:18.306Z,11.63
2023-05-22T01:55:47.750Z,13.52
2023-05-22T01:58:25.891Z,12.90
2023-05-22T02:00:54.759Z,13.15
2023-05-22T02:03:23.678Z,12.82
2023-05-22T02:05:53.019Z,13.13
2023-05-22T02:08:20.816Z,13.02
2023-05-22T02:10:51.568Z,12.65
2023-05-22T02:13:18.903Z,12.82
2023-05-22T02:15:47.148Z,13.57
2023-05-22T02:18:14.375Z,13.80
2023-05-22T02:20:42.477Z,13.95
2023-05-22T02:23:09.622Z,13.10
2023-05-22T02:25:36.965Z,13.02
2023-05-22T02:28:04.128Z,14.07
2023-05-22T02:30:31.255Z,14.23
2023-05-22T02:33:00.279Z,13.88
2023-05-22T02:35:27.662Z,12.35
2023-05-22T02:37:54.857Z,13.20
2023-05-22T02:40:21.997Z,13.48
2023-05-22T02:42:49.111Z,13.50
2023-05-22T02:45:16.268Z,12.95
2023-05-22T02:47:43.443Z,13.02
2023-05-22T02:50:10.756Z,13.40
2023-05-22T02:52:39.321Z,14.57
2023-05-22T02:55:07.394Z,13.48
2023-05-22T02:57:34.531Z,13.75
2023-05-22T03:00:01.681Z,12.73
2023-05-22T03:02:29.846Z,14.85
2023-05-22T03:04:59.627Z,13.10
2023-05-22T03:09:54.225Z,13.23
2023-05-22T03:12:23.821Z,13.88
2023-05-22T03:14:51.109Z,15.00
2023-05-22T03:17:18.324Z,15.15
2023-05-22T03:19:45.522Z,14.82
2023-05-22T03:22:12.716Z,14.55
2023-05-22T03:24:39.834Z,14.60
2023-05-22T03:27:07.631Z,14.27
2023-05-22T03:29:37.405Z,13.95
2023-05-22T03:32:04.754Z,13.52
2023-05-22T03:34:32.358Z,13.82
2023-05-22T03:36:59.628Z,14.13
2023-05-22T03:39:26.772Z,14.95
2023-05-22T03:41:53.889Z,13.90
2023-05-22T03:44:21.181Z,13.38
2023-05-22T03:46:48.372Z,14.00
2023-05-22T03:49:15.565Z,14.40
2023-05-22T03:51:44.999Z,14.50
2023-05-22T03:54:12.121Z,14.55
2023-05-22T03:56:39.301Z,13.82
2023-05-22T03:59:06.394Z,15.10
2023-05-22T04:01:33.498Z,15.80
2023-05-22T04:04:00.871Z,14.90
2023-05-22T04:06:28.052Z,14.02
2023-05-22T04:08:57.495Z,14.88
2023-05-22T04:11:24.706Z,15.13
2023-05-22T04:13:51.862Z,15.50
2023-05-22T04:16:19.148Z,13.98
2023-05-22T04:18:46.389Z,13.55
2023-05-22T04:21:13.849Z,15.25
2023-05-22T04:23:43.372Z,14.57
2023-05-22T04:26:10.593Z,14.35
2023-05-22T04:28:38.047Z,14.60
2023-05-22T04:31:06.462Z,14.48
2023-05-22T04:33:34.653Z,14.55
2023-05-22T04:36:02.782Z,15.73
2023-05-22T04:38:30.192Z,15.73
2023-05-22T04:41:00.331Z,15.02
2023-05-22T04:43:27.595Z,13.95
2023-05-22T04:45:54.906Z,14.00
2023-05-22T04:48:22.533Z,14.77
2023-05-22T04:50:50.231Z,14.77
2023-05-22T04:53:17.449Z,14.93
2023-05-22T04:55:46.059Z,13.35
2023-05-22T04:58:13.208Z,14.30
2023-05-22T05:00:40.702Z,15.40
2023-05-22T05:03:08.425Z,14.63
2023-05-22T05:05:37.962Z,14.15
2023-05-22T05:08:05.194Z,14.23
2023-05-22T05:10:32.310Z,14.25
2023-05-22T05:12:59.457Z,14.48
2023-05-22T05:15:27.556Z,14.95
2023-05-22T05:17:54.742Z,14.48
2023-05-22T05:20:21.953Z,14.25
2023-05-22T05:22:52.602Z,14.60
2023-05-22T05:25:19.764Z,14.48
2023-05-22T05:27:46.954Z,15.65
2023-05-22T05:30:14.193Z,15.48
2023-05-22T05:32:41.602Z,17.50
2023-05-22T05:35:09.009Z,15.15
2023-05-22T05:37:36.663Z,15.50
2023-05-22T05:40:06.462Z,16.27
2023-05-22T05:42:33.591Z,15.40
2023-05-22T05:45:03.041Z,16.05
2023-05-22T05:47:30.537Z,14.95
2023-05-22T05:49:58.829Z,17.02
2023-05-22T05:52:27.163Z,15.48
2023-05-22T05:54:54.311Z,17.40
2023-05-22T05:57:21.944Z,17.65
2023-05-22T05:59:49.700Z,17.75
2023-05-22T06:02:19.430Z,18.67
2023-05-22T06:04:49.869Z,19.23
2023-05-22T06:07:17.371Z,18.17
2023-05-22T06:09:44.483Z,15.95
2023-05-22T06:12:12.905Z,15.75
2023-05-22T06:14:40.632Z,16.23
2023-05-22T06:17:09.268Z,16.80
2023-05-22T06:19:36.612Z,18.27
2023-05-22T06:22:03.852Z,18.77
2023-05-22T06:24:32.462Z,18.52
2023-05-22T06:27:02.441Z,15.20
2023-05-22T06:29:31.805Z,19.88
2023-05-22T06:32:01.538Z,18.70
2023-05-22T06:34:29.743Z,17.48
2023-05-22T06:36:59.230Z,18.30
2023-05-22T06:39:29.775Z,23.08
2023-05-22T06:41:57.806Z,21.10
2023-05-22T06:44:27.411Z,26.27
2023-05-22T06:49:21.742Z,23.77
2023-05-22T06:51:49.200Z,20.27
2023-05-22T06:54:19.768Z,21.75
2023-05-22T06:56:51.361Z,21.80
2023-05-22T06:59:18.631Z,27.05
2023-05-22T07:01:45.893Z,23.25
2023-05-22T07:04:13.429Z,23.50
2023-05-22T07:06:41.815Z,22.42
2023-05-22T07:09:11.185Z,27.08
2023-05-22T07:11:38.399Z,26.20
2023-05-22T07:14:08.718Z,23.10
2023-05-22T07:16:36.934Z,25.17
2023-05-22T07:19:04.269Z,23.98
2023-05-22T07:21:32.483Z,25.30
2023-05-22T07:23:59.603Z,25.88
2023-05-22T07:26:29.922Z,23.85
2023-05-22T07:28:57.151Z,25.33
2023-05-22T07:31:24.374Z,27.70
2023-05-22T07:33:51.629Z,23.90
2023-05-22T07:36:19.120Z,25.45
2023-05-22T07:38:46.499Z,23.58
2023-05-22T07:41:14.042Z,23.17
2023-05-22T07:43:41.202Z,24.02
2023-05-22T07:46:09.458Z,24.55
2023-05-22T07:48:36.710Z,24.85
2023-05-22T07:51:03.911Z,24.67
2023-05-22T07:53:31.681Z,24.75
2023-05-22T07:55:58.835Z,23.15
2023-05-22T07:58:26.914Z,25.15
2023-05-22T08:00:54.469Z,26.70
2023-05-22T08:03:24.349Z,25.00
2023-05-22T08:05:51.792Z,27.40
2023-05-22T08:08:19.012Z,25.33
2023-05-22T08:10:58.304Z,25.10
2023-05-22T08:13:30.827Z,24.45
2023-05-22T08:16:00.634Z,25.23
2023-05-22T08:18:29.227Z,27.85
2023-05-22T08:20:57.060Z,26.75
2023-05-22T08:23:26.467Z,26.63
2023-05-22T08:25:53.596Z,25.35
2023-05-22T08:28:21.008Z,24.48
2023-05-22T08:30:48.251Z,26.55
2023-05-22T08:33:19.643Z,26.55
2023-05-22T08:35:46.823Z,27.33
2023-05-22T08:38:14.007Z,26.15
2023-05-22T08:40:43.265Z,27.55
2023-05-22T08:43:12.479Z,24.75
2023-05-22T08:45:42.415Z,23.20
2023-05-22T08:48:12.628Z,25.17
2023-05-22T08:50:43.664Z,24.05
2023-05-22T08:53:13.556Z,25.50
2023-05-22T08:55:40.904Z,23.90
2023-05-22T08:58:09.361Z,24.38
2023-05-22T09:00:36.682Z,25.15
2023-05-22T09:03:06.646Z,26.38
2023-05-22T09:05:34.197Z,26.38
2023-05-22T09:08:16.014Z,26.60
2023-05-22T09:10:47.330Z,26.50
2023-05-22T09:13:24.477Z,24.23
2023-05-22T09:15:51.611Z,24.00
2023-05-22T09:18:18.817Z,26.98
2023-05-22T09:20:48.216Z,27.00
2023-05-22T09:23:17.785Z,25.10
2023-05-22T09:25:45.587Z,22.65
2023-05-22T09:28:13.360Z,25.42
2023-05-22T09:30:42.372Z,25.42
2023-05-22T09:35:39.505Z,24.30
2023-05-22T09:38:06.784Z,24.05
2023-05-22T09:40:35.145Z,25.05
2023-05-22T09:43:05.131Z,25.60
2023-05-22T09:45:35.074Z,26.30
2023-05-22T09:48:02.360Z,26.67
2023-05-22T09:50:29.630Z,30.00
2023-05-22T09:52:57.632Z,26.90
2023-05-22T09:55:27.531Z,25.70
2023-05-22T09:57:55.339Z,30.90
2023-05-22T10:00:24.096Z,27.33
2023-05-22T10:02:55.074Z,26.63
2023-05-22T10:05:22.693Z,28.13
2023-05-22T10:07:51.135Z,27.73
2023-05-22T10:10:19.167Z,29.25
2023-05-22T10:12:53.356Z,32.70
2023-05-22T10:15:21.449Z,33.72
2023-05-22T10:17:51.662Z,33.10
2023-05-22T10:20:22.100Z,32.47
2023-05-22T10:22:49.284Z,32.28
2023-05-22T10:25:18.402Z,32.65
2023-05-22T10:27:45.989Z,30.98
2023-05-22T10:30:16.160Z,32.22
2023-05-22T10:32:47.520Z,31.42
2023-05-22T10:35:19.013Z,31.63
2023-05-22T10:38:04.375Z,32.88
2023-05-22T10:40:33.041Z,30.58
2023-05-22T10:43:01.138Z,32.97
2023-05-22T10:45:31.977Z,29.00
2023-05-22T10:48:06.216Z,26.10
2023-05-22T10:50:36.473Z,25.83
2023-05-22T10:53:20.112Z,26.67
2023-05-22T10:55:48.233Z,26.40
2023-05-22T10:58:15.977Z,25.13
2023-05-22T11:00:43.261Z,25.23
2023-05-22T11:03:18.027Z,24.83
2023-05-22T11:05:52.895Z,23.17
2023-05-22T11:08:26.167Z,23.40
2023-05-22T11:10:57.171Z,21.42
2023-05-22T11:13:29.249Z,22.33
2023-05-22T11:15:57.830Z,22.05
2023-05-22T11:18:25.435Z,22.10
2023-05-22T11:20:54.892Z,20.40
2023-05-22T11:25:51.658Z,17.90
2023-05-22T11:28:18.893Z,23.42
2023-05-22T11:30:46.812Z,22.00
2023-05-22T11:33:14.153Z,20.85
2023-05-22T11:35:41.539Z,20.20
2023-05-22T11:38:09.078Z,22.38
2023-05-22T11:40:36.459Z,22.08
2023-05-22T11:43:04.684Z,23.77
2023-05-22T11:45:31.950Z,27.88
2023-05-22T11:47:59.229Z,26.80
2023-05-22T11:50:41.041Z,23.00
2023-05-22T11:53:09.304Z,24.98
2023-05-22T11:55:36.429Z,29.20
2023-05-22T11:58:03.597Z,28.15
2023-05-22T12:00:31.973Z,30.05
2023-05-22T12:02:59.677Z,26.67
2023-05-22T12:05:27.049Z,30.50
2023-05-22T12:07:54.253Z,29.80
2023-05-22T12:10:21.500Z,30.17
2023-05-22T12:12:50.902Z,29.27
2023-05-22T12:17:45.135Z,29.65
2023-05-22T12:20:14.566Z,27.02
2023-05-22T12:25:19.967Z,22.40
2023-05-22T12:27:47.469Z,23.58
2023-05-22T12:30:17.680Z,27.33
2023-05-22T12:32:51.328Z,27.25
2023-05-22T12:35:19.129Z,24.02
2023-05-22T12:37:52.315Z,26.35
2023-05-22T12:40:19.896Z,23.63
2023-05-22T12:42:48.432Z,23.48
2023-05-22T12:45:17.625Z,25.43
2023-05-22T12:47:47.174Z,23.50
2023-05-22T12:50:16.820Z,26.40
2023-05-22T12:52:44.018Z,27.52
2023-05-22T12:55:11.416Z,28.42
2023-05-22T12:57:41.228Z,24.88
2023-05-22T13:00:11.293Z,22.13
2023-05-22T13:02:38.634Z,23.60
2023-05-22T13:05:06.212Z,24.63
2023-05-22T13:07:33.489Z,27.95
2023-05-22T13:10:00.628Z,26.20
2023-05-22T13:12:27.974Z,25.33
2023-05-22T13:14:55.177Z,26.13
2023-05-22T13:17:22.506Z,24.92
2023-05-22T13:19:49.696Z,25.23
2023-05-22T13:22:16.884Z,25.58
2023-05-22T13:24:43.736Z,23.35
2023-05-22T13:27:10.521Z,26.70
2023-05-22T13:29:39.452Z,24.52
2023-05-22T13:32:09.071Z,25.40
2023-05-22T13:34:35.863Z,24.63
2023-05-22T13:37:03.134Z,21.67
2023-05-22T13:39:29.852Z,21.50
2023-05-22T13:41:56.960Z,24.05
2023-05-22T13:44:24.069Z,22.02
2023-05-22T13:46:52.985Z,18.73
2023-05-22T13:49:20.390Z,19.08
2023-05-22T13:51:47.573Z,21.23
2023-05-22T13:54:26.927Z,19.55
2023-05-22T13:59:30.463Z,17.45
2023-05-22T14:02:02.580Z,19.90
2023-05-22T14:04:30.959Z,19.52
2023-05-22T14:07:01.166Z,17.27
2023-05-22T14:09:30.926Z,17.55
2023-05-22T14:11:58.134Z,20.10
2023-05-22T14:14:25.425Z,20.63
2023-05-22T14:16:52.806Z,19.80
2023-05-22T14:19:20.678Z,19.50
2023-05-22T14:21:53.435Z,18.15
2023-05-22T14:24:20.739Z,18.65
2023-05-22T14:26:48.102Z,19.42
2023-05-22T14:29:15.787Z,19.88
2023-05-22T14:31:51.791Z,17.17
2023-05-22T14:34:19.250Z,19.02
2023-05-22T14:36:46.848Z,15.73
2023-05-22T14:39:14.025Z,17.38
2023-05-22T14:41:41.203Z,19.48
2023-05-22T14:44:08.427Z,18.38
2023-05-22T14:46:35.866Z,16.08
2023-05-22T14:49:05.311Z,19.40
2023-05-22T14:51:32.481Z,15.55
2023-05-22T14:54:02.915Z,18.30
2023-05-22T14:56:30.061Z,19.88
2023-05-22T14:58:58.121Z,19.73
2023-05-22T15:01:25.370Z,18.40
2023-05-22T15:03:57.253Z,17.90
2023-05-22T15:06:24.384Z,18.85
2023-05-22T15:08:54.147Z,15.50
2023-05-22T15:11:21.972Z,17.55
2023-05-22T15:13:49.720Z,19.15
2023-05-22T15:16:16.916Z,18.02
2023-05-22T15:18:44.106Z,19.48
2023-05-22T15:21:11.882Z,19.83
2023-05-22T15:23:39.049Z,22.42
2023-05-22T15:26:07.076Z,22.15
2023-05-22T15:28:34.255Z,20.10
2023-05-22T15:31:01.423Z,20.15
2023-05-22T15:33:28.999Z,21.40
2023-05-22T15:35:56.218Z,19.77
2023-05-22T15:38:25.935Z,19.83
2023-05-22T15:40:53.097Z,20.67
2023-05-22T15:43:20.339Z,22.45
2023-05-22T15:45:50.873Z,21.27
2023-05-22T15:48:20.863Z,20.02
2023-05-22T15:50:48.032Z,20.33
2023-05-22T15:53:15.829Z,21.58
2023-05-22T15:55:45.567Z,21.98
2023-05-22T15:58:12.721Z,21.55
2023-05-22T16:00:41.329Z,23.13
2023-05-22T16:03:09.794Z,20.73
2023-05-22T16:05:40.662Z,20.25
2023-05-22T16:08:11.745Z,22.50
2023-05-22T16:10:41.579Z,21.50
2023-05-22T16:13:10.602Z,22.98
2023-05-22T16:15:39.825Z,25.10
2023-05-22T16:18:07.921Z,22.73
2023-05-22T16:20:38.624Z,26.80
2023-05-22T16:23:05.900Z,23.33
2023-05-22T16:25:33.019Z,23.10
2023-05-22T16:28:02.584Z,23.10
2023-05-22T16:30:29.734Z,22.70
2023-05-22T16:32:57.014Z,28.73
2023-05-22T16:35:24.355Z,25.88
2023-05-22T16:37:51.829Z,27.75
2023-05-22T16:40:19.084Z,24.85
2023-05-22T16:42:46.347Z,29.33
2023-05-22T16:45:16.005Z,24.45
2023-05-22T16:47:43.253Z,25.13
2023-05-22T16:50:13.035Z,26.23
2023-05-22T16:52:40.565Z,25.05
2023-05-22T16:55:08.082Z,30.27
2023-05-22T16:57:35.259Z,27.48
2023-05-22T17:00:03.644Z,28.55
2023-05-22T17:02:31.013Z,24.92
2023-05-22T17:04:58.373Z,29.02
2023-05-22T17:07:26.491Z,25.00
2023-05-22T17:09:53.647Z,28.70
2023-05-22T17:12:23.291Z,29.15
2023-05-22T17:14:50.410Z,28.83
2023-05-22T17:17:17.557Z,28.48
2023-05-22T17:19:44.721Z,27.13
2023-05-22T17:22:11.916Z,28.58
2023-05-22T17:24:39.305Z,27.63
2023-05-22T17:27:06.681Z,26.88
2023-05-22T17:29:33.940Z,29.25
2023-05-22T17:32:01.482Z,26.85
2023-05-22T17:34:28.681Z,28.65
2023-05-22T17:36:55.891Z,26.77
2023-05-22T17:39:23.430Z,30.67
2023-05-22T17:41:52.916Z,26.38
2023-05-22T17:46:47.278Z,26.38
2023-05-22T17:49:14.452Z,29.05
2023-05-22T17:51:42.101Z,26.48
2023-05-22T17:54:09.405Z,27.50
2023-05-22T17:56:37.394Z,28.23
2023-05-22T17:59:04.541Z,27.02
2023-05-22T18:01:32.040Z,25.75
2023-05-22T18:04:01.273Z,28.77
2023-05-22T18:06:29.197Z,26.65
2023-05-22T18:08:56.473Z,27.35
2023-05-22T18:11:26.061Z,28.83
2023-05-22T18:16:20.462Z,29.30
2023-05-22T18:18:47.950Z,26.67
2023-05-22T18:21:15.182Z,28.25
2023-05-22T18:23:42.427Z,26.02
2023-05-22T18:26:12.388Z,28.63
2023-05-22T18:28:42.586Z,28.10
2023-05-22T18:31:12.699Z,27.13
2023-05-22T18:33:40.316Z,27.42
2023-05-22T18:36:07.804Z,25.05
2023-05-22T18:38:35.038Z,28.30
2023-05-22T18:41:02.416Z,25.20
2023-05-22T18:43:29.745Z,27.60
2023-05-22T18:45:59.001Z,27.85
2023-05-22T18:48:29.126Z,30.85
2023-05-22T18:50:57.670Z,26.95
2023-05-22T18:53:27.734Z,25.58
2023-05-22T18:55:54.895Z,25.05
2023-05-22T18:58:22.136Z,25.17
2023-05-22T19:00:49.431Z,24.05
2023-05-22T19:03:16.693Z,25.10
2023-05-22T19:05:46.568Z,31.20
2023-05-22T19:08:13.764Z,23.77
2023-05-22T19:10:42.017Z,25.90
2023-05-22T19:13:11.626Z,24.65
2023-05-22T19:18:05.986Z,24.63
2023-05-22T19:20:34.922Z,22.38
2023-05-22T19:23:02.089Z,21.88
2023-05-22T19:25:29.371Z,21.80
2023-05-22T19:27:58.991Z,21.05
2023-05-22T19:30:28.422Z,22.50
2023-05-22T19:35:27.934Z,23.27
2023-05-22T19:40:22.185Z,23.70
2023-05-22T19:42:49.538Z,22.88
2023-05-22T19:45:17.552Z,22.10
2023-05-22T19:47:44.739Z,21.42
2023-05-22T19:50:12.421Z,21.05
2023-05-22T19:52:39.668Z,21.33
2023-05-22T19:55:07.053Z,21.10
2023-05-22T19:57:36.499Z,19.38
2023-05-22T20:02:34.131Z,19.77
2023-05-22T20:05:01.769Z,17.98
2023-05-22T20:07:29.276Z,17.98
2023-05-22T20:09:56.484Z,16.27
2023-05-22T20:12:23.640Z,14.23
2023-05-22T20:14:54.119Z,12.77
2023-05-22T20:17:22.654Z,12.32
2023-05-22T20:19:52.393Z,10.03
2023-05-22T20:22:19.628Z,9.35
2023-05-22T20:24:49.439Z,10.15
2023-05-22T20:27:19.277Z,7.60
2023-05-22T20:29:46.512Z,7.97
2023-05-22T20:32:13.749Z,7.00
2023-05-22T20:34:45.160Z,7.22
2023-05-22T20:37:13.649Z,7.38
2023-05-22T20:39:44.329Z,7.30
2023-05-22T20:42:13.002Z,8.00
2023-05-22T20:44:41.322Z,7.60
2023-05-22T20:47:11.306Z,7.90
2023-05-22T20:49:43.039Z,7.05
2023-05-22T20:52:10.267Z,7.28
2023-05-22T20:54:37.476Z,7.35
2023-05-22T20:57:04.742Z,7.43
2023-05-22T20:59:32.171Z,6.63
2023-05-22T21:02:01.997Z,6.65
2023-05-22T21:04:31.527Z,6.82
2023-05-22T21:06:59.922Z,6.47
2023-05-22T21:09:27.084Z,6.70
2023-05-22T21:11:54.254Z,6.10
2023-05-22T21:14:21.409Z,7.93
2023-05-22T21:16:48.635Z,7.60
2023-05-22T21:19:15.932Z,7.28
2023-05-22T21:21:43.205Z,7.53
2023-05-22T21:24:10.465Z,8.18
2023-05-22T21:26:37.689Z,7.35
2023-05-22T21:29:05.306Z,9.02
2023-05-22T21:31:34.645Z,8.32
2023-05-22T21:34:03.075Z,7.55
2023-05-22T21:36:31.464Z,7.93
2023-05-22T21:39:00.329Z,7.65
2023-05-22T21:41:27.786Z,8.35
2023-05-22T21:43:57.457Z,8.88
2023-05-22T21:46:24.803Z,8.63
2023-05-22T21:48:53.609Z,7.88
2023-05-22T21:51:23.122Z,7.90
2023-05-22T21:56:17.404Z,8.10
2023-05-22T21:58:44.548Z,8.18
2023-05-22T22:01:14.210Z,8.18
2023-05-22T22:03:41.434Z,8.05
2023-05-22T22:06:11.172Z,8.30
2023-05-22T22:08:38.384Z,8.10
2023-05-22T22:11:05.524Z,7.63
2023-05-22T22:13:37.391Z,9.95
2023-05-22T22:16:04.677Z,10.57
2023-05-22T22:18:37.943Z,9.80
2023-05-22T22:21:04.728Z,9.85
2023-05-22T22:23:33.584Z,10.32
2023-05-22T22:26:02.799Z,9.90
2023-05-22T22:28:29.570Z,10.27
2023-05-22T22:30:56.867Z,10.32
2023-05-22T22:33:30.254Z,10.05
2023-05-22T22:35:59.494Z,9.95
2023-05-22T22:38:27.624Z,9.38
2023-05-22T22:40:54.815Z,8.73
2023-05-22T22:43:21.989Z,9.18
2023-05-22T22:45:49.183Z,8.65
2023-05-22T22:48:16.684Z,8.68
2023-05-22T22:50:44.101Z,7.53
2023-05-22T22:53:11.316Z,7.88
2023-05-22T22:55:41.426Z,8.25
2023-05-22T22:58:09.542Z,6.90
2023-05-22T23:00:36.728Z,7.72
2023-05-22T23:03:03.983Z,7.07
2023-05-22T23:05:31.273Z,6.43
2023-05-22T23:08:01.904Z,7.28
2023-05-22T23:10:29.326Z,7.22
2023-05-22T23:12:56.584Z,6.68
2023-05-22T23:15:24.161Z,6.20
2023-05-22T23:17:52.125Z,6.38
2023-05-22T23:20:21.988Z,6.90
2023-05-22T23:22:49.136Z,5.65
2023-05-22T23:25:16.349Z,5.68
2023-05-22T23:27:43.621Z,5.80
2023-05-22T23:30:10.951Z,5.65
2023-05-22T23:32:38.119Z,5.75
2023-05-22T23:35:05.804Z,5.72
2023-05-22T23:37:32.985Z,6.13
2023-05-22T23:40:00.315Z,5.72
2023-05-22T23:42:27.494Z,5.90
2023-05-22T23:44:54.627Z,6.40
2023-05-22T23:47:21.903Z,5.43
2023-05-22T23:49:51.726Z,6.13
2023-05-22T23:52:18.846Z,6.07
2023-05-22T23:54:45.958Z,6.60
2023-05-22T23:57:13.130Z,6.53
2023-05-22T23:59:40.477Z,7.05
